Time;durP1;ratioP1;P1;durP2;ratioP2;P2;SDS_P1;SDS_P2;PMS_P1;PMS_P2;Temp;Humidity;BMP_temperature;BMP_pressure;BME280_temperature;BME280_humidity;BME280_pressure;Samples;Min_cycle;Max_cycle;Signal;HPM_P1;HPM_P2
2020/12/08 00:01:54;;;;;;;18.30;14.17;;;;;;;1.56;100.00;97218.59;5064899;28;20312;-77
2020/12/08 00:04:21;;;;;;;15.33;13.17;;;;;;;1.54;100.00;97218.69;5064513;28;20528;-78
2020/12/08 00:06:48;;;;;;;17.80;14.20;;;;;;;1.54;100.00;97216.09;5071953;28;20614;-77
2020/12/08 00:09:16;;;;;;;16.00;14.03;;;;;;;1.67;100.00;97211.81;5072907;28;20199;-77
2020/12/08 00:11:49;;;;;;;17.27;13.57;;;;;;;1.55;100.00;97207.34;5067536;28;20202;-77
2020/12/08 00:14:16;;;;;;;16.83;13.53;;;;;;;1.65;100.00;97208.47;5070163;28;20243;-77
2020/12/08 00:16:43;;;;;;;16.97;13.87;;;;;;;1.88;100.00;97214.06;5053815;28;20209;-77
2020/12/08 00:19:10;;;;;;;15.67;13.00;;;;;;;1.67;100.00;97219.63;5072525;28;20201;-77
2020/12/08 00:21:38;;;;;;;16.60;13.07;;;;;;;1.96;100.00;97211.81;5071706;28;20209;-77
2020/12/08 00:24:06;;;;;;;17.83;13.13;;;;;;;1.86;100.00;97223.72;5052967;28;20229;-77
2020/12/08 00:26:34;;;;;;;15.30;12.43;;;;;;;1.82;100.00;97219.63;5065885;28;20555;-76
2020/12/08 00:29:01;;;;;;;15.67;13.37;;;;;;;1.88;100.00;97217.47;5067254;28;20221;-77
2020/12/08 00:31:29;;;;;;;15.70;12.40;;;;;;;1.80;100.00;97222.31;5062895;28;20201;-77
2020/12/08 00:33:56;;;;;;;17.90;14.23;;;;;;;1.77;100.00;97200.84;5071707;28;20768;-77
2020/12/08 00:36:25;;;;;;;17.17;13.43;;;;;;;1.88;100.00;97201.84;5055204;28;20218;-77
2020/12/08 00:38:53;;;;;;;17.00;13.17;;;;;;;1.84;100.00;97196.94;5052023;28;20201;-77
2020/12/08 00:41:22;;;;;;;16.43;13.77;;;;;;;1.93;100.00;97194.63;5052066;28;20707;-77
2020/12/08 00:43:51;;;;;;;18.17;13.33;;;;;;;1.90;100.00;97192.19;5052194;28;20268;-77
2020/12/08 00:46:19;;;;;;;18.27;14.03;;;;;;;1.86;100.00;97189.84;5070064;28;20251;-77
2020/12/08 00:48:47;;;;;;;17.37;13.73;;;;;;;2.02;100.00;97190.59;5071774;28;20259;-78
2020/12/08 00:51:14;;;;;;;17.33;14.00;;;;;;;2.01;100.00;97194.13;5087122;28;20266;-77
2020/12/08 00:53:43;;;;;;;16.87;13.90;;;;;;;2.13;100.00;97193.38;5071593;28;20216;-77
2020/12/08 00:56:14;;;;;;;15.00;11.70;;;;;;;2.26;100.00;97205.53;5068096;28;20218;-77
2020/12/08 00:58:46;;;;;;;17.10;14.00;;;;;;;2.39;100.00;97207.38;5066715;28;20663;-77
2020/12/08 01:01:15;;;;;;;16.53;13.43;;;;;;;2.46;100.00;97212.13;5062358;28;20198;-77
2020/12/08 01:03:43;;;;;;;14.57;11.67;;;;;;;2.55;100.00;97216.75;5070386;28;20202;-77
2020/12/08 01:06:11;;;;;;;19.17;14.27;;;;;;;2.52;99.25;97206.50;5069878;28;20279;-77
2020/12/08 01:08:43;;;;;;;16.17;13.63;;;;;;;2.58;98.90;97211.34;5071516;28;20191;-77
2020/12/08 01:11:10;;;;;;;18.00;14.27;;;;;;;2.50;100.00;97197.94;5071219;28;20708;-77
2020/12/08 01:13:40;;;;;;;16.47;12.90;;;;;;;2.66;99.55;97193.44;5061500;28;20666;-78
2020/12/08 01:16:15;;;;;;;18.03;14.70;;;;;;;2.72;99.09;97202.63;5064745;28;20295;-77
2020/12/08 01:18:42;;;;;;;13.10;10.50;;;;;;;2.74;98.11;97201.59;5069989;28;20646;-78
2020/12/08 01:21:15;;;;;;;14.47;11.73;;;;;;;2.70;98.18;97194.91;5066892;28;20208;-77
2020/12/08 01:23:44;;;;;;;20.17;15.50;;;;;;;2.69;98.23;97197.63;5067705;28;20193;-77
2020/12/08 01:26:12;;;;;;;21.07;15.87;;;;;;;2.51;98.24;97194.41;5050177;28;20551;-77
2020/12/08 01:28:40;;;;;;;19.50;15.33;;;;;;;2.45;100.00;97194.78;5053544;28;20336;-77
2020/12/08 01:31:07;;;;;;;18.40;13.47;;;;;;;2.64;98.65;97194.47;5051417;28;20198;-77
2020/12/08 01:33:35;;;;;;;18.20;14.00;;;;;;;2.81;98.86;97192.44;5051971;28;20702;-77
2020/12/08 01:36:02;;;;;;;19.60;15.43;;;;;;;2.58;98.17;97190.50;5069424;28;20205;-77
2020/12/08 01:38:30;;;;;;;20.37;14.60;;;;;;;2.67;97.83;97191.63;5066442;28;20205;-77
2020/12/08 01:40:58;;;;;;;19.07;15.10;;;;;;;2.58;98.47;97185.28;5061944;28;20201;-77
2020/12/08 01:43:27;;;;;;;20.80;16.83;;;;;;;2.48;98.14;97184.16;5070276;28;20209;-77
2020/12/08 01:45:55;;;;;;;22.77;17.20;;;;;;;2.36;99.06;97179.72;5067759;28;20196;-78
2020/12/08 01:48:24;;;;;;;21.53;15.33;;;;;;;2.52;99.13;97179.59;5085623;28;20283;-77
2020/12/08 01:50:57;;;;;;;20.33;16.47;;;;;;;2.23;99.68;97181.44;5068965;28;20681;-78
2020/12/08 01:53:26;;;;;;;21.60;16.50;;;;;;;2.45;99.85;97184.34;5069742;28;20275;-77
2020/12/08 01:55:53;;;;;;;20.40;16.40;;;;;;;2.33;99.89;97187.72;5079880;28;20255;-77
2020/12/08 01:58:21;;;;;;;22.60;16.73;;;;;;;2.23;100.00;97184.03;5068983;28;20250;-77
2020/12/08 02:00:55;;;;;;;20.97;16.27;;;;;;;2.30;100.00;97190.56;5070103;28;20193;-77
2020/12/08 02:03:22;;;;;;;19.50;15.27;;;;;;;2.34;100.00;97192.03;5053361;28;20280;-77
2020/12/08 02:05:51;;;;;;;21.00;16.87;;;;;;;2.36;99.42;97186.72;5065063;28;20200;-77
2020/12/08 02:08:28;;;;;;;22.00;16.10;;;;;;;2.43;100.00;97181.03;5068907;28;20200;-77
2020/12/08 02:10:56;;;;;;;20.20;16.07;;;;;;;2.52;98.92;97175.22;5050794;28;20180;-77
2020/12/08 02:13:24;;;;;;;22.33;17.00;;;;;;;2.45;99.12;97167.88;5044904;28;20242;-77
2020/12/08 02:15:54;;;;;;;21.10;16.40;;;;;;;2.08;100.00;97177.19;5058778;28;20630;-77
2020/12/08 02:18:22;;;;;;;21.10;17.23;;;;;;;2.14;100.00;97179.41;5060895;28;20646;-77
2020/12/08 02:20:55;;;;;;;19.83;15.83;;;;;;;2.33;100.00;97174.69;5069988;28;20717;-77
2020/12/08 02:23:23;;;;;;;21.07;17.27;;;;;;;2.46;99.71;97177.38;5069235;28;20210;-77
2020/12/08 02:25:58;;;;;;;21.27;17.27;;;;;;;2.57;98.94;97167.94;5054508;28;20252;-77
2020/12/08 02:28:29;;;;;;;19.67;15.90;;;;;;;2.59;99.03;97170.44;5069331;28;20197;-77
2020/12/08 02:30:58;;;;;;;18.03;13.63;;;;;;;2.67;99.08;97153.38;5059823;28;20201;-77
2020/12/08 02:33:28;;;;;;;21.30;16.43;;;;;;;2.63;98.27;97164.09;5070834;28;20202;-77
2020/12/08 02:35:59;;;;;;;21.93;17.40;;;;;;;2.44;98.42;97172.28;5072604;28;20209;-77
2020/12/08 02:38:27;;;;;;;18.50;14.73;;;;;;;2.50;99.44;97166.66;5062053;28;20205;-78
2020/12/08 02:40:55;;;;;;;17.77;14.33;;;;;;;2.58;99.07;97169.63;5072626;28;20650;-77
2020/12/08 02:43:24;;;;;;;20.80;16.70;;;;;;;2.58;99.24;97182.66;5073142;28;20189;-77
2020/12/08 02:45:55;;;;;;;16.67;14.00;;;;;;;2.60;98.52;97178.19;5065036;28;20198;-77
2020/12/08 02:48:22;;;;;;;21.37;16.93;;;;;;;2.66;98.71;97182.16;5073756;28;20243;-77
2020/12/08 02:51:01;;;;;;;18.23;15.03;;;;;;;2.69;98.05;97177.59;5051011;28;20205;-78
2020/12/08 02:53:29;;;;;;;19.93;16.37;;;;;;;2.74;98.13;97179.88;5065437;28;20202;-78
2020/12/08 02:55:57;;;;;;;21.93;17.37;;;;;;;2.57;98.40;97172.31;5071366;28;20244;-77
2020/12/08 02:58:28;;;;;;;20.63;16.67;;;;;;;2.64;98.43;97174.41;5072006;28;20229;-77
2020/12/08 03:00:55;;;;;;;20.53;15.97;;;;;;;2.77;97.96;97175.31;5072825;28;20213;-77
2020/12/08 03:03:22;;;;;;;21.13;17.83;;;;;;;2.71;97.07;97174.88;5065559;28;20277;-78
2020/12/08 03:05:50;;;;;;;20.47;16.93;;;;;;;2.74;98.76;97178.13;5064547;28;20197;-77
2020/12/08 03:08:18;;;;;;;20.87;16.97;;;;;;;2.67;97.61;97169.00;5086974;28;20189;-77
2020/12/08 03:10:46;;;;;;;22.77;18.53;;;;;;;2.18;99.31;97165.25;5072419;28;20202;-78
2020/12/08 03:13:13;;;;;;;24.77;18.50;;;;;;;2.34;99.50;97160.75;5071324;28;20201;-78
2020/12/08 03:15:47;;;;;;;22.63;17.93;;;;;;;2.28;100.00;97158.53;5079799;28;20245;-77
2020/12/08 03:18:15;;;;;;;25.67;19.67;;;;;;;2.24;99.37;97162.28;5059797;28;20189;-77
2020/12/08 03:20:42;;;;;;;22.67;17.97;;;;;;;2.27;98.46;97157.69;5072186;28;20258;-78
2020/12/08 03:23:09;;;;;;;25.13;19.63;;;;;;;1.91;100.00;97159.19;5076257;28;20182;-77
2020/12/08 03:25:41;;;;;;;21.00;17.03;;;;;;;2.08;100.00;97166.75;5069840;28;20300;-77
2020/12/08 03:28:12;;;;;;;22.10;17.73;;;;;;;2.06;100.00;97172.06;5064714;28;20202;-77
2020/12/08 03:30:42;;;;;;;23.67;18.47;;;;;;;1.94;99.96;97172.81;5070033;28;20208;-77
2020/12/08 03:33:09;;;;;;;23.17;18.43;;;;;;;1.80;100.00;97174.63;5058968;28;20200;-77
2020/12/08 03:35:36;;;;;;;25.13;18.63;;;;;;;1.61;100.00;97165.31;5069211;28;20583;-77
2020/12/08 03:38:03;;;;;;;25.30;19.27;;;;;;;1.74;100.00;97171.44;5071668;28;20205;-77
2020/12/08 03:40:30;;;;;;;25.07;19.00;;;;;;;1.60;100.00;97176.66;5071566;28;20688;-77
2020/12/08 03:43:03;;;;;;;25.27;18.60;;;;;;;1.59;100.00;97176.75;5072364;28;20191;-78
2020/12/08 03:45:32;;;;;;;23.13;18.17;;;;;;;1.74;100.00;97175.84;5084193;28;20223;-77
2020/12/08 03:48:03;;;;;;;25.83;18.90;;;;;;;1.35;100.00;97167.81;5062527;28;20201;-77
2020/12/08 03:50:37;;;;;;;22.33;17.83;;;;;;;1.36;100.00;97159.91;5087981;28;20193;-78
2020/12/08 03:53:07;;;;;;;24.30;19.23;;;;;;;1.25;100.00;97161.47;5088786;28;20201;-77
2020/12/08 03:55:43;;;;;;;24.60;17.97;;;;;;;1.34;100.00;97158.34;5061253;28;20227;-78
2020/12/08 03:58:12;;;;;;;25.67;19.17;;;;;;;1.18;100.00;97161.00;5068683;28;20272;-77
2020/12/08 04:00:40;;;;;;;25.43;19.67;;;;;;;1.20;100.00;97159.16;5071215;28;20300;-78
2020/12/08 04:03:07;;;;;;;25.97;19.10;;;;;;;1.24;100.00;97155.44;5074432;28;20208;-78
2020/12/08 04:05:39;;;;;;;25.50;19.43;;;;;;;1.24;100.00;97160.63;5074309;28;20198;-78
2020/12/08 04:08:08;;;;;;;25.30;19.10;;;;;;;1.16;100.00;97157.66;5073776;28;20332;-77
2020/12/08 04:10:42;;;;;;;25.20;18.93;;;;;;;1.21;100.00;97153.00;5068450;28;20181;-78
2020/12/08 04:13:11;;;;;;;25.63;19.03;;;;;;;1.34;100.00;97164.38;5057632;28;20603;-77
2020/12/08 04:15:41;;;;;;;26.87;19.83;;;;;;;1.56;100.00;97169.97;5070530;28;20811;-78
2020/12/08 04:18:10;;;;;;;26.80;19.63;;;;;;;1.34;100.00;97167.00;5070665;28;20200;-77
2020/12/08 04:20:39;;;;;;;27.30;19.80;;;;;;;1.19;100.00;97162.69;5073017;28;20683;-84
2020/12/08 04:23:06;;;;;;;24.50;19.00;;;;;;;1.31;100.00;97167.16;5052077;28;20647;-81
2020/12/08 04:25:34;;;;;;;25.63;18.93;;;;;;;1.29;100.00;97166.44;5051330;28;20276;-81
2020/12/08 04:28:04;;;;;;;27.07;20.10;;;;;;;1.03;100.00;97159.31;5062541;28;20193;-81
2020/12/08 04:30:33;;;;;;;26.17;19.50;;;;;;;0.95;100.00;97153.72;5059559;28;20204;-80
2020/12/08 04:33:01;;;;;;;28.23;19.50;;;;;;;0.90;100.00;97169.56;5085161;28;20752;-84
2020/12/08 04:35:29;;;;;;;27.47;19.43;;;;;;;0.82;100.00;97163.97;5070241;28;20217;-79
2020/12/08 04:37:56;;;;;;;28.43;19.87;;;;;;;0.76;100.00;97158.31;5015067;28;24122;-79
2020/12/08 04:40:24;;;;;;;27.37;20.07;;;;;;;0.74;100.00;97167.94;5066751;28;20285;-78
2020/12/08 04:42:53;;;;;;;28.57;20.50;;;;;;;0.71;100.00;97175.91;5068283;28;20246;-78
2020/12/08 04:45:22;;;;;;;24.73;17.90;;;;;;;1.01;100.00;97180.19;5068878;28;20247;-77
2020/12/08 04:47:50;;;;;;;29.63;20.83;;;;;;;0.92;100.00;97177.31;5061709;28;20203;-77
2020/12/08 04:50:19;;;;;;;26.80;18.90;;;;;;;0.90;100.00;97176.56;5068672;28;20244;-78
2020/12/08 04:52:50;;;;;;;28.17;19.47;;;;;;;0.66;100.00;97162.34;5050035;28;20201;-77
2020/12/08 04:55:18;;;;;;;28.10;19.17;;;;;;;0.55;100.00;97155.16;5058735;28;20215;-77
2020/12/08 04:57:47;;;;;;;26.80;18.83;;;;;;;0.51;100.00;97166.66;5066810;28;20205;-77
2020/12/08 05:00:14;;;;;;;27.77;19.47;;;;;;;0.44;100.00;97168.78;5055238;28;20796;-77
2020/12/08 05:02:48;;;;;;;26.27;17.37;;;;;;;0.52;100.00;97170.94;5046381;28;20279;-83
2020/12/08 05:05:17;;;;;;;26.93;18.43;;;;;;;0.48;100.00;97170.25;5050357;28;20208;-76
2020/12/08 05:07:45;;;;;;;30.43;20.77;;;;;;;0.48;100.00;97164.22;5069034;28;20205;-77
2020/12/08 05:10:12;;;;;;;27.73;20.27;;;;;;;0.52;100.00;97161.38;5065268;28;20244;-79
2020/12/08 05:12:39;;;;;;;28.87;20.10;;;;;;;0.80;100.00;97159.78;5058547;28;20284;-79
2020/12/08 05:15:15;;;;;;;29.40;20.70;;;;;;;0.83;100.00;97164.81;5054884;28;20213;-78
2020/12/08 05:17:43;;;;;;;28.33;20.37;;;;;;;0.78;100.00;97156.47;5064918;28;20230;-79
2020/12/08 05:20:12;;;;;;;28.70;20.30;;;;;;;0.77;100.00;97144.38;5065893;28;20228;-79
2020/12/08 05:22:52;;;;;;;27.27;18.53;;;;;;;0.75;100.00;97146.22;5049442;28;20205;-78
2020/12/08 05:25:20;;;;;;;29.10;20.27;;;;;;;0.65;100.00;97148.50;5063524;28;20208;-78
2020/12/08 05:27:50;;;;;;;26.87;19.00;;;;;;;0.59;100.00;97144.50;5057112;28;20219;-80
2020/12/08 05:30:17;;;;;;;30.50;20.47;;;;;;;0.55;100.00;97139.56;5054326;28;20194;-78
2020/12/08 05:32:45;;;;;;;29.47;19.83;;;;;;;0.52;100.00;97138.00;5062717;28;20609;-78
2020/12/08 05:35:15;;;;;;;29.83;20.93;;;;;;;0.70;100.00;97148.28;5044612;28;20207;-81
2020/12/08 05:37:49;;;;;;;30.20;21.33;;;;;;;0.70;100.00;97156.91;5049448;28;20692;-78
2020/12/08 05:40:18;;;;;;;30.17;20.73;;;;;;;0.71;100.00;97153.38;5056263;28;20227;-78
2020/12/08 05:42:46;;;;;;;29.30;20.13;;;;;;;0.59;100.00;97154.06;5060642;28;20228;-78
2020/12/08 05:45:15;;;;;;;28.30;20.03;;;;;;;0.55;100.00;97158.63;5061738;28;20274;-78
2020/12/08 05:47:44;;;;;;;29.67;19.40;;;;;;;0.58;100.00;97160.19;5048947;28;20200;-78
2020/12/08 05:50:12;;;;;;;30.57;20.27;;;;;;;0.63;100.00;97163.38;5055980;28;20246;-79
2020/12/08 05:52:46;;;;;;;30.97;20.60;;;;;;;0.61;100.00;97153.97;5068589;28;20223;-79
2020/12/08 05:55:16;;;;;;;31.17;21.03;;;;;;;0.56;100.00;97149.06;5063795;28;20257;-78
2020/12/08 05:57:43;;;;;;;30.10;20.70;;;;;;;0.59;100.00;97154.06;5056803;28;20196;-78
2020/12/08 06:00:22;;;;;;;31.83;20.97;;;;;;;0.72;100.00;97162.84;5047799;28;20260;-79
2020/12/08 06:02:49;;;;;;;29.43;19.50;;;;;;;0.81;100.00;97166.69;5068593;28;20200;-78
2020/12/08 06:05:29;;;;;;;31.53;20.83;;;;;;;0.80;100.00;97165.00;5061702;28;20192;-79
2020/12/08 06:07:56;;;;;;;29.67;18.63;;;;;;;0.67;100.00;97158.84;5070880;28;20566;-78
2020/12/08 06:10:25;;;;;;;27.80;19.30;;;;;;;0.69;100.00;97160.41;5089908;28;20250;-79
2020/12/08 06:13:00;;;;;;;30.10;21.13;;;;;;;0.82;100.00;97163.13;5068147;28;20193;-80
2020/12/08 06:15:38;;;;;;;31.43;20.70;;;;;;;0.90;100.00;97150.56;5068944;28;20202;-81
2020/12/08 06:18:05;;;;;;;30.20;20.07;;;;;;;0.75;100.00;97141.03;5068270;28;20260;-82
2020/12/08 06:20:36;;;;;;;29.17;20.90;;;;;;;0.77;100.00;97157.38;5052354;28;20203;-83
2020/12/08 06:23:04;;;;;;;29.93;21.27;;;;;;;0.79;100.00;97158.13;5072701;28;20202;-86
2020/12/08 06:25:33;;;;;;;27.90;20.00;;;;;;;0.83;100.00;97154.44;5059410;28;20474;-78
2020/12/08 06:28:01;;;;;;;28.73;20.57;;;;;;;0.75;100.00;97161.84;5063412;28;20199;-77
2020/12/08 06:30:28;;;;;;;30.10;21.17;;;;;;;0.76;100.00;97153.94;5065585;28;20212;-78
2020/12/08 06:33:01;;;;;;;28.57;19.37;;;;;;;0.84;100.00;97150.91;5047100;28;20200;-78
2020/12/08 06:35:32;;;;;;;30.90;20.47;;;;;;;0.94;100.00;97152.88;5070929;28;20199;-78
2020/12/08 06:38:15;;;;;;;31.57;20.17;;;;;;;1.02;100.00;97160.22;5057029;28;20215;-78
2020/12/08 06:40:52;;;;;;;30.43;20.63;;;;;;;1.09;100.00;97161.56;5053287;28;20192;-78
2020/12/08 06:43:19;;;;;;;28.50;21.80;;;;;;;1.06;100.00;97167.78;5070367;28;20187;-80
2020/12/08 06:45:46;;;;;;;28.63;20.77;;;;;;;0.93;100.00;97171.16;5061437;28;20212;-86
2020/12/08 06:48:18;;;;;;;29.53;20.27;;;;;;;0.93;100.00;97176.34;5056882;28;20197;-80
2020/12/08 06:50:46;;;;;;;32.60;21.80;;;;;;;0.84;100.00;97175.13;5063987;28;20276;-79
2020/12/08 06:53:14;;;;;;;28.90;19.80;;;;;;;0.68;100.00;97176.94;5049922;28;20200;-79
2020/12/08 06:55:47;;;;;;;27.47;20.00;;;;;;;0.66;100.00;97188.34;5049160;28;20198;-79
2020/12/08 06:58:15;;;;;;;29.53;21.03;;;;;;;0.58;100.00;97192.22;5055698;28;20219;-79
2020/12/08 07:00:44;;;;;;;32.43;21.37;;;;;;;0.47;100.00;97193.75;5069550;28;20274;-79
2020/12/08 07:03:12;;;;;;;32.30;20.70;;;;;;;0.42;100.00;97193.16;5064428;28;20198;-79
2020/12/08 07:05:40;;;;;;;29.83;20.83;;;;;;;0.54;100.00;97188.09;5060419;28;20204;-78
2020/12/08 07:08:09;;;;;;;39.00;27.57;;;;;;;0.74;100.00;97202.59;5051300;28;20209;-77
2020/12/08 07:10:37;;;;;;;43.63;25.97;;;;;;;0.77;100.00;97191.16;5052980;28;20258;-78
2020/12/08 07:13:11;;;;;;;35.87;21.83;;;;;;;0.63;100.00;97193.72;5063919;28;20203;-80
2020/12/08 07:15:39;;;;;;;32.83;21.17;;;;;;;0.55;100.00;97196.75;5069915;28;20198;-79
2020/12/08 07:18:08;;;;;;;34.03;21.83;;;;;;;0.67;100.00;97200.44;5075714;28;20205;-78
2020/12/08 07:20:36;;;;;;;33.83;22.53;;;;;;;0.79;100.00;97195.34;5070888;28;20191;-79
2020/12/08 07:23:04;;;;;;;33.50;21.60;;;;;;;0.94;100.00;97188.44;5053763;28;21020;-78
2020/12/08 07:25:32;;;;;;;33.13;20.67;;;;;;;0.79;100.00;97194.50;5053066;28;20248;-80
2020/12/08 07:28:01;;;;;;;32.37;21.67;;;;;;;0.82;100.00;97194.34;5071099;28;20253;-78
2020/12/08 07:30:30;;;;;;;30.63;20.00;;;;;;;1.03;100.00;97198.31;5067800;28;20719;-79
2020/12/08 07:33:08;;;;;;;33.47;22.27;;;;;;;1.04;100.00;97210.38;5043837;28;20203;-78
2020/12/08 07:35:36;;;;;;;30.40;20.43;;;;;;;0.99;100.00;97212.41;5053031;28;20194;-79
2020/12/08 07:38:05;;;;;;;29.97;21.87;;;;;;;0.89;100.00;97212.13;5035610;28;20197;-78
2020/12/08 07:40:34;;;;;;;29.87;21.50;;;;;;;1.01;100.00;97207.97;5052419;28;20687;-79
2020/12/08 07:43:01;;;;;;;30.10;20.60;;;;;;;1.29;100.00;97210.66;5062911;28;20199;-79
2020/12/08 07:45:29;;;;;;;26.53;17.73;;;;;;;1.52;100.00;97212.72;5071808;28;20310;-78
2020/12/08 07:47:58;;;;;;;28.23;20.20;;;;;;;1.46;100.00;97214.88;5070308;28;20198;-79
2020/12/08 07:50:28;;;;;;;29.53;21.93;;;;;;;0.97;100.00;97214.28;5029457;28;20245;-79
2020/12/08 07:53:02;;;;;;;30.07;20.53;;;;;;;0.83;100.00;97212.47;5031747;28;20235;-81
2020/12/08 07:55:30;;;;;;;27.93;20.47;;;;;;;0.87;100.00;97207.94;5029881;28;20193;-80
2020/12/08 07:57:58;;;;;;;27.70;20.60;;;;;;;0.96;100.00;97213.44;5030861;28;20257;-81
2020/12/08 08:00:25;;;;;;;25.67;18.50;;;;;;;1.28;100.00;97219.38;5049618;28;20211;-79
2020/12/08 08:02:52;;;;;;;36.53;27.47;;;;;;;1.45;100.00;97226.19;5051774;28;20212;-78
2020/12/08 08:05:19;;;;;;;30.90;23.30;;;;;;;1.50;100.00;97226.75;5049630;28;20198;-79
2020/12/08 08:07:47;;;;;;;28.07;21.57;;;;;;;1.30;100.00;97238.34;5046815;28;20208;-78
2020/12/08 08:10:14;;;;;;;31.20;21.67;;;;;;;0.98;100.00;97228.97;5050022;28;20224;-80
2020/12/08 08:12:41;;;;;;;27.27;20.20;;;;;;;0.63;100.00;97230.09;5053092;28;20198;-79
2020/12/08 08:15:09;;;;;;;29.33;20.80;;;;;;;0.56;100.00;97221.81;5064377;28;20204;-78
2020/12/08 08:17:36;;;;;;;28.40;21.13;;;;;;;0.68;100.00;97228.06;5070774;28;20226;-78
2020/12/08 08:20:04;;;;;;;27.57;19.73;;;;;;;0.56;100.00;97225.22;5032901;28;20209;-78
2020/12/08 08:22:31;;;;;;;30.43;21.47;;;;;;;0.53;100.00;97230.59;5050261;28;20488;-80
2020/12/08 08:24:59;;;;;;;30.43;21.53;;;;;;;0.56;100.00;97230.44;5040905;28;20535;-78
2020/12/08 08:27:26;;;;;;;31.77;22.33;;;;;;;0.65;100.00;97229.09;5038681;28;20322;-78
2020/12/08 08:29:53;;;;;;;29.87;20.03;;;;;;;0.68;100.00;97238.47;5051065;28;20204;-78
2020/12/08 08:32:21;;;;;;;29.07;20.53;;;;;;;0.86;100.00;97237.44;5047405;28;20227;-79
2020/12/08 08:34:48;;;;;;;30.50;21.37;;;;;;;0.95;100.00;97245.59;5071820;28;20197;-78
2020/12/08 08:37:15;;;;;;;27.57;20.27;;;;;;;1.02;100.00;97238.25;5062889;28;20217;-78
2020/12/08 08:39:42;;;;;;;31.23;22.20;;;;;;;1.14;100.00;97246.19;5036816;28;20217;-81
2020/12/08 08:42:10;;;;;;;30.97;21.63;;;;;;;1.16;100.00;97241.75;5032442;28;20680;-83
2020/12/08 08:44:37;;;;;;;30.23;21.80;;;;;;;1.38;100.00;97240.47;5031919;28;20207;-78
2020/12/08 08:47:04;;;;;;;27.90;19.73;;;;;;;1.50;100.00;97230.19;5033022;28;20199;-78
2020/12/08 08:49:31;;;;;;;25.97;19.37;;;;;;;1.37;100.00;97244.88;5046412;28;20239;-79
2020/12/08 08:51:58;;;;;;;29.07;21.97;;;;;;;1.65;100.00;97233.66;5050426;28;20200;-78
2020/12/08 08:54:25;;;;;;;27.87;20.97;;;;;;;2.10;98.44;97246.50;5031712;28;20200;-80
2020/12/08 08:56:55;;;;;;;29.60;21.10;;;;;;;2.09;96.33;97244.00;5033641;28;20566;-77
2020/12/08 08:59:23;;;;;;;25.03;20.07;;;;;;;2.30;96.30;97247.91;5031336;28;20661;-77
2020/12/08 09:01:50;;;;;;;27.53;19.63;;;;;;;2.42;93.91;97251.47;5039795;28;20273;-78
2020/12/08 09:04:17;;;;;;;27.80;20.13;;;;;;;2.61;93.40;97258.06;5051536;28;20223;-78
2020/12/08 09:06:44;;;;;;;24.43;18.83;;;;;;;3.06;93.52;97258.69;5051114;28;20254;-79
2020/12/08 09:09:12;;;;;;;27.80;19.90;;;;;;;3.29;90.09;97253.63;5050657;28;20196;-77
2020/12/08 09:11:39;;;;;;;25.97;19.93;;;;;;;3.04;90.94;97250.94;5044808;28;20202;-79
2020/12/08 09:14:07;;;;;;;26.17;19.73;;;;;;;3.34;91.01;97253.34;5059375;28;20216;-78
2020/12/08 09:16:36;;;;;;;22.73;18.77;;;;;;;3.27;90.00;97252.88;5044130;28;20233;-78
2020/12/08 09:19:03;;;;;;;25.37;19.90;;;;;;;3.35;88.36;97252.38;5040774;28;20219;-77
2020/12/08 09:21:30;;;;;;;25.47;19.90;;;;;;;3.59;87.78;97248.16;5032903;28;20239;-78
2020/12/08 09:24:00;;;;;;;25.97;19.57;;;;;;;4.09;87.64;97258.59;5030509;28;20225;-80
2020/12/08 09:26:27;;;;;;;26.10;19.53;;;;;;;4.01;84.92;97249.63;5030013;28;20205;-78
2020/12/08 09:28:54;;;;;;;22.47;18.83;;;;;;;3.57;87.67;97249.16;5028691;28;20222;-79
2020/12/08 09:31:21;;;;;;;23.43;18.43;;;;;;;3.85;87.40;97244.59;5032287;28;20286;-78
2020/12/08 09:33:51;;;;;;;24.37;18.80;;;;;;;3.19;88.50;97244.72;5054241;28;20555;-78
2020/12/08 09:36:18;;;;;;;24.70;19.60;;;;;;;3.14;89.45;97240.75;5040835;28;20231;-79
2020/12/08 09:38:45;;;;;;;24.30;19.27;;;;;;;3.48;89.58;97245.41;5033323;28;20203;-78
2020/12/08 09:41:12;;;;;;;24.00;19.27;;;;;;;3.67;88.40;97242.41;5046905;28;20197;-77
2020/12/08 09:43:39;;;;;;;24.70;20.03;;;;;;;3.65;87.25;97242.47;5031279;28;20199;-78
2020/12/08 09:46:06;;;;;;;22.80;18.43;;;;;;;3.52;85.88;97246.88;5026705;28;20193;-79
2020/12/08 09:48:33;;;;;;;22.90;18.27;;;;;;;3.81;87.76;97237.91;5034354;28;20237;-79
2020/12/08 09:51:01;;;;;;;20.43;16.60;;;;;;;4.17;87.14;97234.53;5050855;28;20675;-80
2020/12/08 09:53:28;;;;;;;23.50;18.00;;;;;;;3.71;83.75;97234.25;5059762;28;20194;-79
2020/12/08 09:55:56;;;;;;;23.10;18.37;;;;;;;3.93;85.17;97237.06;5032642;28;20271;-79
2020/12/08 09:58:23;;;;;;;20.67;17.77;;;;;;;3.93;84.53;97237.06;5050209;28;20561;-78
2020/12/08 10:00:50;;;;;;;23.33;19.13;;;;;;;4.26;84.00;97244.38;5042220;28;20209;-79
2020/12/08 10:03:17;;;;;;;21.73;16.53;;;;;;;4.69;82.08;97242.16;5067954;28;20203;-79
2020/12/08 10:05:44;;;;;;;19.37;16.10;;;;;;;4.68;82.45;97230.88;5061820;28;20210;-78
2020/12/08 10:08:12;;;;;;;20.67;15.73;;;;;;;4.83;82.11;97238.56;5062625;28;20198;-79
2020/12/08 10:10:40;;;;;;;21.37;17.47;;;;;;;4.56;80.24;97231.75;5056784;28;20210;-79
2020/12/08 10:13:07;;;;;;;18.43;15.37;;;;;;;4.65;82.09;97225.84;5069776;28;20205;-78
2020/12/08 10:15:34;;;;;;;21.77;17.77;;;;;;;4.59;82.04;97220.22;5063034;28;20228;-79
2020/12/08 10:18:01;;;;;;;21.53;17.40;;;;;;;4.80;83.13;97215.25;5050527;28;20579;-78
2020/12/08 10:20:28;;;;;;;23.00;18.00;;;;;;;5.27;81.32;97220.44;5049171;28;20191;-79
2020/12/08 10:22:55;;;;;;;22.87;18.60;;;;;;;5.20;81.02;97225.28;5069782;28;20202;-79
2020/12/08 10:25:23;;;;;;;20.57;17.60;;;;;;;5.23;80.41;97221.59;5034630;28;20214;-79
2020/12/08 10:27:50;;;;;;;22.87;17.40;;;;;;;4.39;82.72;97223.41;5055502;28;20663;-79
2020/12/08 10:30:17;;;;;;;23.00;18.93;;;;;;;4.01;84.56;97224.31;5068335;28;20226;-79
2020/12/08 10:32:44;;;;;;;21.70;17.77;;;;;;;4.27;84.65;97219.88;5052620;28;20226;-78
2020/12/08 10:35:12;;;;;;;23.53;19.90;;;;;;;4.33;82.00;97226.44;5090522;28;20203;-78
2020/12/08 10:37:39;;;;;;;22.93;18.90;;;;;;;4.42;83.40;97233.66;5080847;28;20296;-79
2020/12/08 10:40:06;;;;;;;18.50;16.10;;;;;;;5.23;81.98;97227.69;5050806;28;20203;-79
2020/12/08 10:42:34;;;;;;;19.27;16.83;;;;;;;5.72;78.37;97218.78;5052935;28;20194;-78
2020/12/08 10:45:01;;;;;;;19.23;16.10;;;;;;;6.07;76.66;97213.47;5038008;28;20197;-79
2020/12/08 10:47:28;;;;;;;17.57;15.13;;;;;;;6.45;75.60;97211.31;5073012;28;20210;-79
2020/12/08 10:49:55;;;;;;;17.30;14.93;;;;;;;6.54;75.02;97215.00;5060277;28;20741;-79
2020/12/08 10:52:22;;;;;;;16.30;14.37;;;;;;;5.83;78.46;97221.41;5074388;28;20736;-78
2020/12/08 10:54:49;;;;;;;18.93;15.30;;;;;;;6.62;74.77;97220.47;5073634;28;20195;-79
2020/12/08 10:57:17;;;;;;;18.27;16.23;;;;;;;6.07;73.55;97211.69;5062692;28;20685;-79
2020/12/08 10:59:45;;;;;;;20.43;16.67;;;;;;;5.84;76.83;97212.56;5054333;28;20182;-80
2020/12/08 11:02:12;;;;;;;18.93;15.17;;;;;;;6.91;75.27;97206.69;5073831;28;20230;-78
2020/12/08 11:04:39;;;;;;;19.23;15.83;;;;;;;7.17;71.44;97206.34;5054878;28;20201;-78
2020/12/08 11:07:06;;;;;;;17.13;14.67;;;;;;;7.09;73.09;97209.63;5056846;28;20206;-78
2020/12/08 11:09:33;;;;;;;20.70;16.63;;;;;;;7.16;72.18;97208.13;5076887;28;20244;-79
2020/12/08 11:12:00;;;;;;;18.33;15.37;;;;;;;6.79;72.55;97207.66;5087122;28;20205;-79
2020/12/08 11:14:28;;;;;;;17.70;15.73;;;;;;;7.47;72.31;97212.53;5065345;28;20192;-79
2020/12/08 11:16:58;;;;;;;20.57;16.77;;;;;;;6.80;71.87;97213.75;5069102;28;20236;-78
2020/12/08 11:19:35;;;;;;;18.80;16.80;;;;;;;7.22;70.92;97209.44;5051401;28;20217;-78
2020/12/08 11:22:04;;;;;;;17.37;15.33;;;;;;;6.38;71.28;97216.22;5053699;28;20239;-78
2020/12/08 11:24:38;;;;;;;16.60;14.77;;;;;;;6.19;69.68;97205.50;5056862;28;20236;-78
2020/12/08 11:27:11;;;;;;;17.23;14.67;;;;;;;5.81;71.32;97218.91;5058564;28;20210;-79